createdAt,value
2022-10-22T00:00:09.590Z,99400.63
2022-10-22T00:02:11.639Z,99462.31
2022-10-22T00:04:13.362Z,99409.66
2022-10-22T00:06:15.125Z,99424.09
2022-10-22T00:08:16.732Z,99461.03
2022-10-22T00:10:19.067Z,99511.66
2022-10-22T00:12:21.047Z,99481.13
2022-10-22T00:14:22.618Z,99505.19
2022-10-22T00:16:24.269Z,99427.44
2022-10-22T00:18:26.088Z,99437.47
2022-10-22T00:20:27.697Z,99437.41
2022-10-22T00:22:29.228Z,99499.31
2022-10-22T00:24:31.094Z,99486.59
2022-10-22T00:26:32.691Z,99475.59
2022-10-22T00:28:34.292Z,99454.41
2022-10-22T00:30:35.871Z,99497.47
2022-10-22T00:32:37.563Z,99479.78
2022-10-22T00:34:39.257Z,99501.91
2022-10-22T00:36:40.870Z,99500.94
2022-10-22T00:38:42.933Z,99497.00
2022-10-22T00:40:44.669Z,99467.97
2022-10-22T00:42:46.444Z,99489.19
2022-10-22T00:45:17.071Z,99447.72
2022-10-22T00:47:19.031Z,99480.47
2022-10-22T00:49:20.876Z,99437.31
2022-10-22T00:51:28.814Z,99468.69
2022-10-22T00:53:36.576Z,99483.75
2022-10-22T00:55:39.502Z,99484.66
2022-10-22T00:57:41.654Z,99461.13
2022-10-22T00:59:43.360Z,99474.50
2022-10-22T01:01:45.288Z,99457.47
2022-10-22T01:03:47.875Z,99481.00
2022-10-22T01:05:57.297Z,99481.84
2022-10-22T01:07:59.307Z,99442.81
2022-10-22T01:10:15.960Z,99467.81
2022-10-22T01:12:31.999Z,99482.34
2022-10-22T01:14:42.230Z,99518.72
2022-10-22T01:17:08.002Z,99510.34
2022-10-22T01:19:15.559Z,99515.28
2022-10-22T01:21:23.174Z,99520.88
2022-10-22T01:23:33.378Z,99527.00
2022-10-22T01:25:38.266Z,99563.16
2022-10-22T01:28:18.558Z,99574.06
2022-10-22T01:30:20.815Z,99585.06
2022-10-22T01:32:28.022Z,99570.38
2022-10-22T01:34:32.007Z,99588.50
2022-10-22T01:36:35.815Z,99592.41
2022-10-22T01:38:40.015Z,99596.78
2022-10-22T01:40:42.800Z,99528.66
2022-10-22T01:43:00.955Z,99600.91
2022-10-22T01:45:02.545Z,99533.06
2022-10-22T01:47:11.337Z,99575.84
2022-10-22T01:49:32.730Z,99570.34
2022-10-22T01:51:44.552Z,99491.25
2022-10-22T01:54:01.204Z,99516.09
2022-10-22T01:56:44.831Z,99552.19
2022-10-22T01:58:56.533Z,99588.59
2022-10-22T02:01:22.158Z,99566.50
2022-10-22T02:03:32.279Z,99561.72
2022-10-22T02:05:53.356Z,99587.13
2022-10-22T02:08:01.888Z,99526.53
2022-10-22T02:10:04.663Z,99531.22
2022-10-22T02:12:08.403Z,99550.47
2022-10-22T02:14:12.792Z,99511.56
2022-10-22T02:16:32.555Z,99505.16
2022-10-22T02:18:38.832Z,99519.63
2022-10-22T02:20:42.464Z,99527.28
2022-10-22T02:22:44.255Z,99537.09
2022-10-22T02:24:46.451Z,99502.31
2022-10-22T02:26:59.983Z,99584.72
2022-10-22T02:29:20.144Z,99567.56
2022-10-22T02:31:26.114Z,99556.72
2022-10-22T02:33:31.745Z,99503.03
2022-10-22T02:35:34.432Z,99502.28
2022-10-22T02:37:37.014Z,99472.31
2022-10-22T02:39:39.937Z,99544.09
2022-10-22T02:41:42.660Z,99507.31
2022-10-22T02:43:51.067Z,99482.53
2022-10-22T02:45:54.718Z,99550.28
2022-10-22T02:47:56.539Z,99571.13
2022-10-22T02:49:58.186Z,99533.31
2022-10-22T02:51:59.847Z,99573.47
2022-10-22T02:54:01.848Z,99567.28
2022-10-22T02:56:03.718Z,99545.19
2022-10-22T02:58:05.274Z,99500.75
2022-10-22T03:00:09.240Z,99467.72
2022-10-22T03:02:10.936Z,99544.16
2022-10-22T03:04:12.517Z,99562.06
2022-10-22T03:06:14.182Z,99514.97
2022-10-22T03:08:15.807Z,99570.53
2022-10-22T03:10:17.488Z,99545.13
2022-10-22T03:12:19.151Z,99523.97
2022-10-22T03:14:20.781Z,99496.34
2022-10-22T03:16:22.483Z,99538.84
2022-10-22T03:18:24.482Z,99561.47
2022-10-22T03:20:26.262Z,99551.97
2022-10-22T03:22:31.945Z,99547.53
2022-10-22T03:24:40.095Z,99563.44
2022-10-22T03:26:43.459Z,99509.41
2022-10-22T03:28:47.892Z,99511.81
2022-10-22T03:30:49.493Z,99546.84
2022-10-22T03:32:51.034Z,99564.81
2022-10-22T03:34:52.746Z,99553.00
2022-10-22T03:36:55.670Z,99567.88
2022-10-22T03:38:57.272Z,99527.59
2022-10-22T03:40:59.028Z,99562.91
2022-10-22T03:43:00.623Z,99517.38
2022-10-22T03:45:02.257Z,99519.03
2022-10-22T03:47:04.144Z,99547.25
2022-10-22T03:49:05.691Z,99565.97
2022-10-22T03:51:07.384Z,99550.69
2022-10-22T03:53:10.649Z,99552.72
2022-10-22T03:55:12.211Z,99587.84
2022-10-22T03:57:13.824Z,99534.47
2022-10-22T03:59:15.633Z,99586.06
2022-10-22T04:01:17.293Z,99568.59
2022-10-22T04:03:19.013Z,99577.66
2022-10-22T04:05:20.552Z,99552.47
2022-10-22T04:07:22.121Z,99602.25
2022-10-22T04:09:24.071Z,99576.56
2022-10-22T04:11:25.619Z,99556.81
2022-10-22T04:13:27.215Z,99582.31
2022-10-22T04:15:29.183Z,99587.56
2022-10-22T04:17:37.788Z,99587.19
2022-10-22T04:19:39.652Z,99617.84
2022-10-22T04:21:41.495Z,99592.44
2022-10-22T04:23:48.452Z,99549.03
2022-10-22T04:25:50.011Z,99535.09
2022-10-22T04:27:51.591Z,99583.88
2022-10-22T04:29:53.147Z,99621.28
2022-10-22T04:31:54.714Z,99621.25
2022-10-22T04:33:58.436Z,99631.19
2022-10-22T04:35:59.999Z,99590.41
2022-10-22T04:38:01.564Z,99598.22
2022-10-22T04:40:04.166Z,99595.03
2022-10-22T04:42:05.797Z,99573.91
2022-10-22T04:44:11.111Z,99631.19
2022-10-22T04:46:18.627Z,99568.63
2022-10-22T04:48:20.206Z,99559.63
2022-10-22T04:50:21.893Z,99625.63
2022-10-22T04:52:23.450Z,99631.13
2022-10-22T04:54:27.746Z,99640.38
2022-10-22T04:56:33.137Z,99626.72
2022-10-22T04:58:35.039Z,99588.50
2022-10-22T05:00:36.649Z,99655.16
2022-10-22T05:02:38.388Z,99567.97
2022-10-22T05:04:39.989Z,99629.38
2022-10-22T05:06:41.733Z,99641.00
2022-10-22T05:08:43.981Z,99611.38
2022-10-22T05:10:45.554Z,99582.03
2022-10-22T05:12:47.111Z,99665.38
2022-10-22T05:14:48.718Z,99597.75
2022-10-22T05:16:51.353Z,99651.75
2022-10-22T05:18:53.426Z,99597.44
2022-10-22T05:20:55.156Z,99653.50
2022-10-22T05:22:56.791Z,99655.66
2022-10-22T05:24:58.363Z,99648.44
2022-10-22T05:27:00.531Z,99601.75
2022-10-22T05:29:02.149Z,99619.38
2022-10-22T05:31:05.096Z,99673.91
2022-10-22T05:33:06.699Z,99677.97
2022-10-22T05:35:08.628Z,99649.72
2022-10-22T05:37:10.193Z,99667.81
2022-10-22T05:39:12.156Z,99636.09
2022-10-22T05:41:16.453Z,99667.03
2022-10-22T05:43:17.995Z,99589.81
2022-10-22T05:45:19.611Z,99670.47
2022-10-22T05:47:21.164Z,99665.66
2022-10-22T05:49:22.717Z,99675.16
2022-10-22T05:51:26.108Z,99650.81
2022-10-22T05:53:27.662Z,99634.59
2022-10-22T05:55:29.212Z,99639.28
2022-10-22T05:57:30.796Z,99668.28
2022-10-22T05:59:32.405Z,99638.78
2022-10-22T06:01:35.636Z,99667.59
2022-10-22T06:03:37.335Z,99665.94
2022-10-22T06:05:39.063Z,99669.06
2022-10-22T06:07:40.682Z,99660.97
2022-10-22T06:09:42.512Z,99668.13
2022-10-22T06:11:45.040Z,99659.53
2022-10-22T06:13:47.226Z,99615.44
2022-10-22T06:15:50.428Z,99652.56
2022-10-22T06:17:52.013Z,99665.00
2022-10-22T06:19:53.626Z,99671.19
2022-10-22T06:21:55.498Z,99660.47
2022-10-22T06:23:58.225Z,99649.91
2022-10-22T06:26:00.352Z,99619.41
2022-10-22T06:28:01.897Z,99652.41
2022-10-22T06:30:04.016Z,99644.72
2022-10-22T06:32:06.224Z,99684.28
2022-10-22T06:34:11.522Z,99694.34
2022-10-22T06:36:16.246Z,99641.00
2022-10-22T06:38:17.797Z,99727.50
2022-10-22T06:40:19.419Z,99724.28
2022-10-22T06:42:20.999Z,99722.19
2022-10-22T06:44:22.843Z,99665.44
2022-10-22T06:46:25.751Z,99695.22
2022-10-22T06:48:27.586Z,99659.63
2022-10-22T06:50:29.240Z,99730.28
2022-10-22T06:52:30.775Z,99745.41
2022-10-22T06:54:32.583Z,99759.56
2022-10-22T06:56:34.395Z,99740.84
2022-10-22T06:58:36.519Z,99724.91
2022-10-22T07:00:38.092Z,99700.28
2022-10-22T07:02:39.924Z,99713.25
2022-10-22T07:04:41.729Z,99746.66
2022-10-22T07:06:43.709Z,99696.44
2022-10-22T07:08:45.374Z,99719.97
2022-10-22T07:10:46.960Z,99767.47
2022-10-22T07:12:48.606Z,99717.63
2022-10-22T07:14:50.219Z,99695.72
2022-10-22T07:16:51.799Z,99767.13
2022-10-22T07:18:53.447Z,99744.56
2022-10-22T07:20:54.994Z,99754.44
2022-10-22T07:22:56.516Z,99782.53
2022-10-22T07:24:58.220Z,99763.56
2022-10-22T07:26:59.864Z,99740.19
2022-10-22T07:29:01.979Z,99729.78
2022-10-22T07:31:03.972Z,99739.22
2022-10-22T07:33:05.681Z,99719.44
2022-10-22T07:35:07.587Z,99758.63
2022-10-22T07:37:09.107Z,99767.72
2022-10-22T07:39:10.707Z,99729.41
2022-10-22T07:41:13.040Z,99770.91
2022-10-22T07:43:14.592Z,99751.16
2022-10-22T07:45:16.187Z,99786.03
2022-10-22T07:47:17.791Z,99784.81
2022-10-22T07:49:19.343Z,99777.16
2022-10-22T07:51:21.292Z,99768.94
2022-10-22T07:53:23.024Z,99798.34
2022-10-22T07:55:24.819Z,99726.09
2022-10-22T07:57:26.507Z,99758.44
2022-10-22T07:59:28.137Z,99726.31
2022-10-22T08:01:29.714Z,99769.69
2022-10-22T08:03:32.591Z,99774.19
2022-10-22T08:05:34.801Z,99739.53
2022-10-22T08:07:36.381Z,99770.84
2022-10-22T08:09:37.942Z,99792.88
2022-10-22T08:11:39.660Z,99773.53
2022-10-22T08:13:45.120Z,99766.31
2022-10-22T08:15:47.289Z,99814.69
2022-10-22T08:17:48.920Z,99757.81
2022-10-22T08:19:50.510Z,99779.75
2022-10-22T08:21:52.101Z,99779.75
2022-10-22T08:23:53.733Z,99818.34
2022-10-22T08:25:56.645Z,99787.19
2022-10-22T08:27:58.240Z,99827.69
2022-10-22T08:29:59.999Z,99819.72
2022-10-22T08:32:02.919Z,99780.78
2022-10-22T08:34:05.697Z,99774.88
2022-10-22T08:36:08.065Z,99799.25
2022-10-22T08:38:09.649Z,99830.94
2022-10-22T08:40:21.590Z,99810.06
2022-10-22T08:42:45.403Z,99802.69
2022-10-22T08:45:09.049Z,99815.63
2022-10-22T08:47:31.775Z,99794.38
2022-10-22T08:49:41.349Z,99804.66
2022-10-22T08:51:43.879Z,99855.50
2022-10-22T08:53:53.600Z,99811.66
2022-10-22T08:55:57.214Z,99845.03
2022-10-22T08:58:16.281Z,99839.41
2022-10-22T09:00:32.761Z,99807.69
2022-10-22T09:03:05.241Z,99792.03
2022-10-22T09:05:28.271Z,99779.50
2022-10-22T09:07:29.810Z,99791.09
2022-10-22T09:09:38.911Z,99809.25
2022-10-22T09:11:43.410Z,99815.84
2022-10-22T09:13:46.279Z,99801.16
2022-10-22T09:16:00.506Z,99788.47
2022-10-22T09:18:17.075Z,99842.44
2022-10-22T09:20:32.868Z,99803.34
2022-10-22T09:22:50.928Z,99810.56
2022-10-22T09:24:59.789Z,99793.66
2022-10-22T09:27:02.213Z,99795.81
2022-10-22T09:29:04.484Z,99856.47
2022-10-22T09:31:13.776Z,99814.38
2022-10-22T09:33:25.947Z,99859.91
2022-10-22T09:35:27.574Z,99795.06
2022-10-22T09:37:30.140Z,99784.03
2022-10-22T09:39:37.560Z,99874.22
2022-10-22T09:41:39.197Z,99789.72
2022-10-22T09:43:40.830Z,99822.25
2022-10-22T09:45:43.575Z,99861.59
2022-10-22T09:48:01.052Z,99831.66
2022-10-22T09:50:12.178Z,99812.38
2022-10-22T09:52:29.463Z,99839.94
2022-10-22T09:54:33.866Z,99840.06
2022-10-22T09:56:41.769Z,99807.97
2022-10-22T09:58:46.050Z,99828.75
2022-10-22T10:00:54.437Z,99802.91
2022-10-22T10:02:58.826Z,99806.00
2022-10-22T10:05:03.654Z,99812.22
2022-10-22T10:07:16.320Z,99867.78
2022-10-22T10:09:21.977Z,99794.28
2022-10-22T10:11:37.453Z,99855.25
2022-10-22T10:14:09.830Z,99797.97
2022-10-22T10:16:47.793Z,99777.78
2022-10-22T10:19:07.385Z,99828.88
2022-10-22T10:21:20.895Z,99866.44
2022-10-22T10:23:58.184Z,99789.59
2022-10-22T10:26:21.881Z,99773.69
2022-10-22T10:29:00.530Z,99823.19
2022-10-22T10:31:20.405Z,99786.53
2022-10-22T10:34:04.544Z,99801.84
2022-10-22T10:36:19.315Z,99784.41
2022-10-22T10:38:54.027Z,99799.19
2022-10-22T10:41:24.440Z,99847.75
2022-10-22T10:43:53.627Z,99826.47
2022-10-22T10:46:34.902Z,99846.38
2022-10-22T10:49:01.125Z,99791.84
2022-10-22T10:51:14.544Z,99802.47
2022-10-22T10:53:27.823Z,99765.09
2022-10-22T10:55:42.087Z,99775.00
2022-10-22T10:57:57.339Z,99770.25
2022-10-22T11:03:43.612Z,99827.34
2022-10-22T11:06:08.375Z,99780.09
2022-10-22T11:08:23.796Z,99788.06
2022-10-22T11:10:40.423Z,99815.44
2022-10-22T11:12:46.395Z,99794.41
2022-10-22T11:15:06.354Z,99808.72
2022-10-22T11:17:15.949Z,99751.75
2022-10-22T11:19:46.519Z,99780.09
2022-10-22T11:22:13.511Z,99757.59
2022-10-22T11:24:40.792Z,99815.88
2022-10-22T11:26:45.117Z,99782.69
2022-10-22T11:28:52.673Z,99799.91
2022-10-22T11:31:09.971Z,99744.66
2022-10-22T11:33:16.464Z,99820.44
2022-10-22T11:35:28.822Z,99702.25
2022-10-22T11:37:35.129Z,99813.78
2022-10-22T11:39:57.052Z,99763.97
2022-10-22T11:42:00.058Z,99718.44
2022-10-22T11:44:07.719Z,99796.31
2022-10-22T11:46:28.949Z,99739.66
2022-10-22T11:48:37.572Z,99754.16
2022-10-22T11:50:46.368Z,99747.63
2022-10-22T11:53:13.728Z,99798.47
2022-10-22T11:55:55.863Z,99743.16
2022-10-22T11:58:00.412Z,99789.81
2022-10-22T12:00:11.100Z,99808.75
2022-10-22T12:02:28.003Z,99780.97
2022-10-22T12:04:43.127Z,99751.38
2022-10-22T12:06:59.618Z,99717.25
2022-10-22T12:09:06.114Z,99741.66
2022-10-22T12:11:10.583Z,99733.34
2022-10-22T12:13:18.136Z,99758.22
2022-10-22T12:15:29.657Z,99785.59
2022-10-22T12:17:31.502Z,99759.59
2022-10-22T12:19:40.819Z,99805.66
2022-10-22T12:21:48.595Z,99770.81
2022-10-22T12:23:51.334Z,99692.84
2022-10-22T12:25:52.966Z,99735.88
2022-10-22T12:27:59.397Z,99694.53
2022-10-22T12:30:02.369Z,99770.38
2022-10-22T12:32:04.759Z,99787.53
2022-10-22T12:34:06.672Z,99735.88
2022-10-22T12:36:16.113Z,99720.00
2022-10-22T12:38:20.441Z,99753.19
2022-10-22T12:40:25.957Z,99724.13
2022-10-22T12:42:27.618Z,99757.25
2022-10-22T12:44:29.287Z,99733.66
2022-10-22T12:46:34.298Z,99765.91
2022-10-22T12:48:40.401Z,99738.88
2022-10-22T12:50:45.363Z,99750.66
2022-10-22T12:52:48.577Z,99727.91
2022-10-22T12:54:52.646Z,99728.09
2022-10-22T12:56:56.204Z,99738.84
2022-10-22T12:59:03.449Z,99703.88
2022-10-22T13:01:05.615Z,99715.47
2022-10-22T13:03:07.808Z,99754.44
2022-10-22T13:05:23.837Z,99748.63
2022-10-22T13:07:25.924Z,99719.97
2022-10-22T13:09:57.884Z,99762.59
2022-10-22T13:12:07.441Z,99764.91
2022-10-22T13:14:26.297Z,99720.28
2022-10-22T13:16:30.206Z,99715.16
2022-10-22T13:18:33.415Z,99727.56
2022-10-22T13:20:37.495Z,99675.56
2022-10-22T13:22:41.575Z,99687.28
2022-10-22T13:24:50.295Z,99680.47
2022-10-22T13:26:54.351Z,99739.78
2022-10-22T13:28:57.637Z,99718.72
2022-10-22T13:31:02.041Z,99742.44
2022-10-22T13:33:22.879Z,99756.06
2022-10-22T13:35:32.181Z,99754.28
2022-10-22T13:37:35.673Z,99713.44
2022-10-22T13:39:37.284Z,99740.53
2022-10-22T13:43:46.279Z,99748.44
2022-10-22T13:48:08.429Z,99747.72
2022-10-22T13:50:15.518Z,99731.38
2022-10-22T13:52:27.691Z,99681.28
2022-10-22T13:54:29.388Z,99717.09
2022-10-22T13:56:31.986Z,99720.84
2022-10-22T13:58:33.636Z,99740.25
2022-10-22T14:00:37.736Z,99700.56
2022-10-22T14:02:40.668Z,99711.03
2022-10-22T14:04:42.771Z,99730.75
2022-10-22T14:06:44.442Z,99722.91
2022-10-22T14:08:48.689Z,99736.72
2022-10-22T14:10:50.351Z,99693.69
2022-10-22T14:12:53.650Z,99685.38
2022-10-22T14:17:02.032Z,99694.53
2022-10-22T14:19:07.028Z,99690.53
2022-10-22T14:21:08.844Z,99681.31
2022-10-22T14:23:18.986Z,99680.38
2022-10-22T14:25:26.058Z,99688.59
2022-10-22T14:27:27.755Z,99740.13
2022-10-22T14:29:29.399Z,99702.06
2022-10-22T14:31:31.743Z,99707.91
2022-10-22T14:33:34.104Z,99727.78
2022-10-22T14:35:35.758Z,99681.38
2022-10-22T14:37:37.364Z,99722.66
2022-10-22T14:39:41.196Z,99705.69
2022-10-22T14:41:42.973Z,99713.13
2022-10-22T14:43:44.594Z,99694.25
2022-10-22T14:45:46.280Z,99715.00
2022-10-22T14:47:49.228Z,99704.38
2022-10-22T14:49:50.873Z,99679.44
2022-10-22T14:51:52.514Z,99710.94
2022-10-22T14:53:54.125Z,99693.38
2022-10-22T14:55:59.520Z,99724.34
2022-10-22T14:58:01.386Z,99694.34
2022-10-22T15:00:04.536Z,99706.94
2022-10-22T15:02:06.523Z,99643.19
2022-10-22T15:04:08.618Z,99704.97
2022-10-22T15:06:10.847Z,99692.28
2022-10-22T15:08:14.693Z,99669.78
2022-10-22T15:10:16.419Z,99708.50
2022-10-22T15:12:18.028Z,99640.63
2022-10-22T15:14:19.829Z,99695.47
2022-10-22T15:16:21.855Z,99696.72
2022-10-22T15:18:24.374Z,99699.84
2022-10-22T15:20:27.422Z,99666.31
2022-10-22T15:22:29.452Z,99697.44
2022-10-22T15:24:31.246Z,99653.94
2022-10-22T15:26:33.094Z,99647.28
2022-10-22T15:28:34.744Z,99685.41
2022-10-22T15:30:36.488Z,99710.78
2022-10-22T15:32:38.336Z,99653.19
2022-10-22T15:34:40.620Z,99680.63
2022-10-22T15:36:42.267Z,99633.91
2022-10-22T15:38:43.954Z,99690.81
2022-10-22T15:40:45.928Z,99677.69
2022-10-22T15:42:47.564Z,99672.06
2022-10-22T15:44:49.506Z,99679.78
2022-10-22T15:46:52.559Z,99671.53
2022-10-22T15:48:54.314Z,99693.91
2022-10-22T15:50:55.934Z,99693.81
2022-10-22T15:52:57.581Z,99668.72
2022-10-22T15:54:59.281Z,99626.44
2022-10-22T15:57:08.717Z,99654.53
2022-10-22T15:59:12.145Z,99631.63
2022-10-22T16:01:14.775Z,99631.38
2022-10-22T16:03:16.533Z,99642.34
2022-10-22T16:05:18.261Z,99626.25
2022-10-22T16:07:23.885Z,99650.78
2022-10-22T16:09:27.710Z,99625.66
2022-10-22T16:11:29.936Z,99642.00
2022-10-22T16:13:31.736Z,99656.25
2022-10-22T16:15:34.981Z,99650.81
2022-10-22T16:17:36.603Z,99640.94
2022-10-22T16:19:38.297Z,99662.25
2022-10-22T16:21:41.009Z,99652.38
2022-10-22T16:23:43.224Z,99661.66
2022-10-22T16:25:46.117Z,99654.56
2022-10-22T16:27:51.316Z,99662.25
2022-10-22T16:29:52.921Z,99655.69
2022-10-22T16:31:54.670Z,99666.16
2022-10-22T16:33:57.332Z,99715.56
2022-10-22T16:35:59.699Z,99705.31
2022-10-22T16:38:01.386Z,99706.53
2022-10-22T16:40:05.937Z,99670.41
2022-10-22T16:42:09.919Z,99635.50
2022-10-22T16:44:13.335Z,99637.13
2022-10-22T16:46:20.711Z,99699.56
2022-10-22T16:48:22.324Z,99688.31
2022-10-22T16:50:24.103Z,99702.19
2022-10-22T16:52:25.803Z,99679.78
2022-10-22T16:54:27.463Z,99681.09
2022-10-22T16:56:29.200Z,99715.53
2022-10-22T16:58:30.916Z,99669.28
2022-10-22T17:00:33.488Z,99684.47
2022-10-22T17:02:37.435Z,99703.81
2022-10-22T17:04:39.086Z,99720.19
2022-10-22T17:06:40.751Z,99710.66
2022-10-22T17:08:42.976Z,99701.38
2022-10-22T17:10:44.689Z,99717.38
2022-10-22T17:12:47.092Z,99725.84
2022-10-22T17:14:48.727Z,99727.34
2022-10-22T17:16:53.767Z,99717.63
2022-10-22T17:18:55.851Z,99695.47
2022-10-22T17:20:58.699Z,99707.94
2022-10-22T17:23:00.438Z,99732.28
2022-10-22T17:25:24.112Z,99720.53
2022-10-22T17:27:25.871Z,99744.88
2022-10-22T17:29:27.540Z,99722.84
2022-10-22T17:31:37.429Z,99731.38
2022-10-22T17:33:39.115Z,99706.69
2022-10-22T17:35:41.213Z,99706.84
2022-10-22T17:37:43.660Z,99746.94
2022-10-22T17:39:45.456Z,99750.84
2022-10-22T17:41:47.120Z,99755.31
2022-10-22T17:43:49.382Z,99746.34
2022-10-22T17:45:51.097Z,99757.53
2022-10-22T17:47:52.758Z,99773.63
2022-10-22T17:49:54.354Z,99718.59
2022-10-22T17:51:56.777Z,99703.38
2022-10-22T17:53:58.745Z,99733.59
2022-10-22T17:56:01.782Z,99721.50
2022-10-22T17:58:03.549Z,99693.50
2022-10-22T18:00:06.227Z,99746.03
2022-10-22T18:02:14.199Z,99716.63
2022-10-22T18:04:18.499Z,99724.97
2022-10-22T18:06:20.824Z,99755.97
2022-10-22T18:08:25.661Z,99733.72
2022-10-22T18:10:29.287Z,99756.78
2022-10-22T18:12:30.888Z,99732.50
2022-10-22T18:14:32.519Z,99729.34
2022-10-22T18:16:34.440Z,99758.59
2022-10-22T18:18:36.407Z,99727.69
2022-10-22T18:20:38.176Z,99733.16
2022-10-22T18:22:41.402Z,99702.69
2022-10-22T18:24:43.003Z,99731.44
2022-10-22T18:26:44.921Z,99728.28
2022-10-22T18:28:48.706Z,99751.16
2022-10-22T18:30:50.417Z,99756.44
2022-10-22T18:32:52.190Z,99752.00
2022-10-22T18:34:53.776Z,99686.69
2022-10-22T18:36:55.433Z,99720.31
2022-10-22T18:38:59.501Z,99745.13
2022-10-22T18:41:01.617Z,99744.03
2022-10-22T18:43:03.858Z,99739.03
2022-10-22T18:45:06.115Z,99741.75
2022-10-22T18:47:08.753Z,99738.81
2022-10-22T18:49:18.273Z,99750.94
2022-10-22T18:51:19.967Z,99758.28
2022-10-22T18:53:21.585Z,99752.56
2022-10-22T18:55:23.189Z,99735.97
2022-10-22T18:57:25.485Z,99725.94
2022-10-22T18:59:27.438Z,99733.34
2022-10-22T19:01:29.515Z,99751.53
2022-10-22T19:03:31.201Z,99739.63
2022-10-22T19:05:32.830Z,99751.38
2022-10-22T19:07:36.522Z,99768.94
2022-10-22T19:09:39.787Z,99719.47
2022-10-22T19:11:42.072Z,99768.63
2022-10-22T19:13:44.001Z,99743.09
2022-10-22T19:15:45.692Z,99750.72
2022-10-22T19:17:47.306Z,99722.44
2022-10-22T19:19:48.952Z,99738.94
2022-10-22T19:21:51.229Z,99752.31
2022-10-22T19:23:58.686Z,99752.31
2022-10-22T19:26:12.861Z,99742.72
2022-10-22T19:28:14.524Z,99729.50
2022-10-22T19:30:17.404Z,99751.47
2022-10-22T19:32:20.163Z,99753.44
2022-10-22T19:34:22.158Z,99733.47
2022-10-22T19:36:25.367Z,99729.75
2022-10-22T19:38:29.783Z,99701.06
2022-10-22T19:40:31.457Z,99710.13
2022-10-22T19:42:33.485Z,99720.38
2022-10-22T19:44:35.171Z,99762.22
2022-10-22T19:46:36.818Z,99735.06
2022-10-22T19:48:38.703Z,99720.75
2022-10-22T19:50:40.597Z,99730.47
2022-10-22T19:52:42.444Z,99720.00
2022-10-22T19:54:45.729Z,99748.38
2022-10-22T19:56:47.944Z,99705.28
2022-10-22T19:58:49.712Z,99700.13
2022-10-22T20:00:51.473Z,99727.59
2022-10-22T20:02:53.122Z,99704.16
2022-10-22T20:04:54.763Z,99719.69
2022-10-22T20:06:56.448Z,99738.94
2022-10-22T20:08:58.269Z,99753.06
2022-10-22T20:11:00.024Z,99707.50
2022-10-22T20:13:01.916Z,99705.44
2022-10-22T20:15:03.700Z,99738.19
2022-10-22T20:17:05.326Z,99712.53
2022-10-22T20:19:08.717Z,99757.47
2022-10-22T20:21:13.939Z,99745.53
2022-10-22T20:23:15.780Z,99768.69
2022-10-22T20:25:17.524Z,99771.66
2022-10-22T20:27:19.128Z,99713.19
2022-10-22T20:29:20.809Z,99737.25
2022-10-22T20:31:24.222Z,99735.50
2022-10-22T20:33:25.876Z,99735.25
2022-10-22T20:35:27.522Z,99715.59
2022-10-22T20:37:29.229Z,99776.00
2022-10-22T20:39:30.948Z,99774.34
2022-10-22T20:41:34.193Z,99731.84
2022-10-22T20:43:36.045Z,99761.63
2022-10-22T20:45:37.739Z,99777.09
2022-10-22T20:47:51.437Z,99767.13
2022-10-22T20:50:00.135Z,99710.34
2022-10-22T20:52:02.148Z,99666.94
2022-10-22T20:54:05.189Z,99687.97
2022-10-22T20:56:07.036Z,99674.16
2022-10-22T20:58:08.851Z,99727.84
2022-10-22T21:00:11.058Z,99710.78
2022-10-22T21:02:12.732Z,99738.28
2022-10-22T21:04:15.134Z,99769.16
2022-10-22T21:06:17.688Z,99693.88
2022-10-22T21:08:19.345Z,99763.13
2022-10-22T21:10:20.977Z,99753.69
2022-10-22T21:12:22.613Z,99751.41
2022-10-22T21:14:24.286Z,99733.47
2022-10-22T21:16:26.017Z,99713.03
2022-10-22T21:18:27.661Z,99674.13
2022-10-22T21:20:29.312Z,99666.28
2022-10-22T21:22:31.086Z,99750.50
2022-10-22T21:24:32.689Z,99734.03
2022-10-22T21:26:41.201Z,99754.66
2022-10-22T21:28:42.898Z,99757.25
2022-10-22T21:30:45.621Z,99756.63
2022-10-22T21:32:47.282Z,99724.69
2022-10-22T21:34:48.930Z,99681.63
2022-10-22T21:36:50.588Z,99679.81
2022-10-22T21:38:52.791Z,99693.22
2022-10-22T21:40:54.519Z,99760.34
2022-10-22T21:42:56.167Z,99768.53
2022-10-22T21:44:57.943Z,99763.03
2022-10-22T21:46:59.587Z,99760.84
2022-10-22T21:49:03.466Z,99729.31
2022-10-22T21:51:14.369Z,99768.75
2022-10-22T21:53:16.003Z,99715.41
2022-10-22T21:55:17.909Z,99737.50
2022-10-22T21:57:19.540Z,99693.78
2022-10-22T21:59:21.181Z,99709.34
2022-10-22T22:01:23.205Z,99740.13
2022-10-22T22:03:25.111Z,99726.53
2022-10-22T22:05:27.668Z,99727.81
2022-10-22T22:07:29.299Z,99737.28
2022-10-22T22:09:31.083Z,99703.78
2022-10-22T22:11:33.695Z,99678.06
2022-10-22T22:13:35.777Z,99661.34
2022-10-22T22:15:37.510Z,99670.75
2022-10-22T22:17:39.140Z,99723.00
2022-10-22T22:19:40.883Z,99745.44
2022-10-22T22:21:42.801Z,99739.31
2022-10-22T22:23:47.077Z,99729.19
2022-10-22T22:25:49.223Z,99753.88
2022-10-22T22:27:50.901Z,99715.69
2022-10-22T22:29:54.243Z,99729.81
2022-10-22T22:31:56.355Z,99749.13
2022-10-22T22:34:00.209Z,99768.28
2022-10-22T22:36:01.809Z,99761.75
2022-10-22T22:38:03.834Z,99711.88
2022-10-22T22:40:06.044Z,99667.19
2022-10-22T22:42:07.653Z,99707.41
2022-10-22T22:44:09.538Z,99762.66
2022-10-22T22:46:12.609Z,99786.72
2022-10-22T22:48:14.285Z,99756.84
2022-10-22T22:50:16.000Z,99754.59
2022-10-22T22:52:17.697Z,99765.94
2022-10-22T22:54:19.390Z,99742.47
2022-10-22T22:56:23.798Z,99750.63
2022-10-22T22:58:25.397Z,99749.66
2022-10-22T23:00:27.100Z,99758.81
2022-10-22T23:02:28.708Z,99751.53
2022-10-22T23:04:30.517Z,99734.25
2022-10-22T23:06:36.677Z,99721.19
2022-10-22T23:08:38.632Z,99726.28
2022-10-22T23:10:40.287Z,99725.41
2022-10-22T23:12:42.377Z,99734.44
2022-10-22T23:14:44.226Z,99741.34
2022-10-22T23:16:48.670Z,99718.88
2022-10-22T23:18:50.853Z,99723.31
2022-10-22T23:20:53.107Z,99708.19
2022-10-22T23:22:54.753Z,99739.31
2022-10-22T23:24:56.356Z,99731.41
2022-10-22T23:27:01.684Z,99713.78
2022-10-22T23:29:09.088Z,99722.09
2022-10-22T23:31:13.630Z,99708.59
2022-10-22T23:33:16.428Z,99720.34
2022-10-22T23:35:18.148Z,99713.94
2022-10-22T23:37:19.818Z,99703.25
2022-10-22T23:39:24.988Z,99683.72
2022-10-22T23:41:26.583Z,99699.00
2022-10-22T23:43:29.699Z,99724.63
2022-10-22T23:45:34.431Z,99730.53
2022-10-22T23:47:36.589Z,99743.25
2022-10-22T23:49:38.249Z,99713.84
2022-10-22T23:51:42.817Z,99657.56
2022-10-22T23:53:45.315Z,99709.38
2022-10-22T23:55:47.046Z,99752.88
2022-10-22T23:57:48.735Z,99709.69
2022-10-22T23:59:50.661Z,99731.34
